sensor_id;sensor_type;location;lat;lon;timestamp;pressure;altitude;pressure_sealevel;temperature;humidity
68891;BME280;55932;48.702;8.884;2023-09-19T00:02:31;95810;;;15.4;62
68891;BME280;55932;48.702;8.884;2023-09-19T00:05:02;95810;;;15.4;62
68891;BME280;55932;48.702;8.884;2023-09-19T00:07:32;95810;;;15.4;62
68891;BME280;55932;48.702;8.884;2023-09-19T00:10:03;95810;;;15.4;62
68891;BME280;55932;48.702;8.884;2023-09-19T00:12:34;95810;;;15.4;62
68891;BME280;55932;48.702;8.884;2023-09-19T00:20:18;95810;;;15.6;61.5
68891;BME280;55932;48.702;8.884;2023-09-19T00:22:49;95800;;;15.6;61.5
68891;BME280;55932;48.702;8.884;2023-09-19T00:25:19;95810;;;15.6;61.5
68891;BME280;55932;48.702;8.884;2023-09-19T00:27:50;95810;;;15.6;61.5
68891;BME280;55932;48.702;8.884;2023-09-19T00:30:24;95810;;;15.6;61.5
68891;BME280;55932;48.702;8.884;2023-09-19T00:32:45;95810;;;15.7;61.5
68891;BME280;55932;48.702;8.884;2023-09-19T00:35:16;95810;;;15.7;61.5
68891;BME280;55932;48.702;8.884;2023-09-19T00:37:45;95810;;;15.6;61.5
68891;BME280;55932;48.702;8.884;2023-09-19T00:40:11;95810;;;15.6;62
68891;BME280;55932;48.702;8.884;2023-09-19T00:42:41;95810;;;15.6;62
68891;BME280;55932;48.702;8.884;2023-09-19T00:45:13;95820;;;15.5;62
68891;BME280;55932;48.702;8.884;2023-09-19T00:47:44;95820;;;15.4;62
68891;BME280;55932;48.702;8.884;2023-09-19T00:50:14;95830;;;15.4;62
68891;BME280;55932;48.702;8.884;2023-09-19T01:00:36;95830;;;15.3;62
68891;BME280;55932;48.702;8.884;2023-09-19T01:03:13;95830;;;15.3;62
68891;BME280;55932;48.702;8.884;2023-09-19T01:08:00;95830;;;15.2;62
68891;BME280;55932;48.702;8.884;2023-09-19T01:10:44;95830;;;15.2;62
68891;BME280;55932;48.702;8.884;2023-09-19T01:15:40;95820;;;15.3;62
68891;BME280;55932;48.702;8.884;2023-09-19T01:18:29;95830;;;15.4;62
68891;BME280;55932;48.702;8.884;2023-09-19T01:20:34;95830;;;15.4;62
68891;BME280;55932;48.702;8.884;2023-09-19T01:23:05;95840;;;15.4;62
68891;BME280;55932;48.702;8.884;2023-09-19T01:25:31;95840;;;15.4;62
68891;BME280;55932;48.702;8.884;2023-09-19T01:28:14;95840;;;15.4;62
68891;BME280;55932;48.702;8.884;2023-09-19T01:30:35;95850;;;15.4;62
68891;BME280;55932;48.702;8.884;2023-09-19T01:32:57;95840;;;15.4;62
68891;BME280;55932;48.702;8.884;2023-09-19T01:38:00;95850;;;15.3;62
68891;BME280;55932;48.702;8.884;2023-09-19T01:40:30;95860;;;15.2;62
68891;BME280;55932;48.702;8.884;2023-09-19T01:43:05;95860;;;15.1;62.5
68891;BME280;55932;48.702;8.884;2023-09-19T01:48:19;95870;;;14.8;62.5
68891;BME280;55932;48.702;8.884;2023-09-19T01:53:06;95870;;;14.6;63
68891;BME280;55932;48.702;8.884;2023-09-19T01:55:37;95870;;;14.5;63
68891;BME280;55932;48.702;8.884;2023-09-19T01:58:19;95870;;;14.5;63
68891;BME280;55932;48.702;8.884;2023-09-19T02:00:44;95880;;;14.5;63
68891;BME280;55932;48.702;8.884;2023-09-19T02:05:40;95880;;;14.5;63
68891;BME280;55932;48.702;8.884;2023-09-19T02:08:11;95890;;;14.5;63
68891;BME280;55932;48.702;8.884;2023-09-19T02:10:42;95880;;;14.4;63
68891;BME280;55932;48.702;8.884;2023-09-19T02:13:13;95880;;;14.4;63
68891;BME280;55932;48.702;8.884;2023-09-19T02:15:44;95870;;;14.3;63
68891;BME280;55932;48.702;8.884;2023-09-19T02:18:15;95890;;;14.2;63.5
68891;BME280;55932;48.702;8.884;2023-09-19T02:20:46;95880;;;14.2;63.5
68891;BME280;55932;48.702;8.884;2023-09-19T02:28:19;95880;;;14.3;63
68891;BME280;55932;48.702;8.884;2023-09-19T02:30:50;95880;;;14.4;63
68891;BME280;55932;48.702;8.884;2023-09-19T02:33:21;95870;;;14.4;63
68891;BME280;55932;48.702;8.884;2023-09-19T02:35:55;95880;;;14.5;63
68891;BME280;55932;48.702;8.884;2023-09-19T02:38:23;95880;;;14.6;63
68891;BME280;55932;48.702;8.884;2023-09-19T02:40:53;95880;;;14.7;63
68891;BME280;55932;48.702;8.884;2023-09-19T02:43:24;95880;;;14.8;62.5
68891;BME280;55932;48.702;8.884;2023-09-19T02:46:01;95890;;;14.9;62.5
68891;BME280;55932;48.702;8.884;2023-09-19T02:56:04;95900;;;15.1;62.5
68891;BME280;55932;48.702;8.884;2023-09-19T02:58:35;95900;;;15.1;62.5
68891;BME280;55932;48.702;8.884;2023-09-19T03:01:07;95900;;;15.2;62.5
68891;BME280;55932;48.702;8.884;2023-09-19T03:05:59;95910;;;15.1;62.5
68891;BME280;55932;48.702;8.884;2023-09-19T03:08:30;95900;;;15.1;62.5
68891;BME280;55932;48.702;8.884;2023-09-19T03:11:01;95910;;;15.1;62.5
68891;BME280;55932;48.702;8.884;2023-09-19T03:13:32;95910;;;15.1;62.5
68891;BME280;55932;48.702;8.884;2023-09-19T03:18:46;95920;;;15.1;62.5
68891;BME280;55932;48.702;8.884;2023-09-19T03:23:40;95920;;;15.1;62.5
68891;BME280;55932;48.702;8.884;2023-09-19T03:26:11;95920;;;15.1;62.5
68891;BME280;55932;48.702;8.884;2023-09-19T03:28:41;95910;;;15.1;62.5
68891;BME280;55932;48.702;8.884;2023-09-19T03:31:10;95910;;;15.2;62.5
68891;BME280;55932;48.702;8.884;2023-09-19T03:33:41;95910;;;15.3;62
68891;BME280;55932;48.702;8.884;2023-09-19T03:36:11;95910;;;15.3;62
68891;BME280;55932;48.702;8.884;2023-09-19T03:41:11;95910;;;15.2;62.5
68891;BME280;55932;48.702;8.884;2023-09-19T03:46:06;95910;;;15.1;62.5
68891;BME280;55932;48.702;8.884;2023-09-19T03:48:37;95910;;;15.1;62.5
68891;BME280;55932;48.702;8.884;2023-09-19T03:51:08;95910;;;15;62.5
68891;BME280;55932;48.702;8.884;2023-09-19T03:53:40;95910;;;15.1;62.5
68891;BME280;55932;48.702;8.884;2023-09-19T03:56:11;95910;;;15.1;62.5
68891;BME280;55932;48.702;8.884;2023-09-19T03:58:41;95910;;;15.1;62.5
68891;BME280;55932;48.702;8.884;2023-09-19T04:01:12;95910;;;15.2;62.5
68891;BME280;55932;48.702;8.884;2023-09-19T04:03:43;95910;;;15.2;62
68891;BME280;55932;48.702;8.884;2023-09-19T04:06:15;95910;;;15.2;62.5
68891;BME280;55932;48.702;8.884;2023-09-19T04:08:52;95910;;;15.3;62
68891;BME280;55932;48.702;8.884;2023-09-19T04:11:23;95910;;;15.4;62
68891;BME280;55932;48.702;8.884;2023-09-19T04:16:18;95900;;;15.6;62
68891;BME280;55932;48.702;8.884;2023-09-19T04:18:49;95910;;;15.7;61.5
68891;BME280;55932;48.702;8.884;2023-09-19T04:21:20;95900;;;15.7;61.5
68891;BME280;55932;48.702;8.884;2023-09-19T04:23:51;95910;;;15.7;62
68891;BME280;55932;48.702;8.884;2023-09-19T04:26:22;95910;;;15.8;61.5
68891;BME280;55932;48.702;8.884;2023-09-19T04:29:02;95910;;;15.7;62
68891;BME280;55932;48.702;8.884;2023-09-19T04:31:24;95910;;;15.6;62
68891;BME280;55932;48.702;8.884;2023-09-19T04:33:55;95920;;;15.6;62
68891;BME280;55932;48.702;8.884;2023-09-19T04:36:26;95920;;;15.6;62
68891;BME280;55932;48.702;8.884;2023-09-19T04:39:03;95930;;;15.6;62
68891;BME280;55932;48.702;8.884;2023-09-19T04:41:34;95930;;;15.4;62
68891;BME280;55932;48.702;8.884;2023-09-19T04:46:30;95930;;;15;62
68891;BME280;55932;48.702;8.884;2023-09-19T04:49:01;95930;;;14.9;62.5
68891;BME280;55932;48.702;8.884;2023-09-19T04:54:09;95940;;;14.8;62
68891;BME280;55932;48.702;8.884;2023-09-19T04:56:40;95950;;;14.8;62
68891;BME280;55932;48.702;8.884;2023-09-19T05:04:07;95960;;;14.8;62
68891;BME280;55932;48.702;8.884;2023-09-19T05:06:38;95950;;;14.8;62
68891;BME280;55932;48.702;8.884;2023-09-19T05:09:09;95960;;;14.8;62
68891;BME280;55932;48.702;8.884;2023-09-19T05:11:40;95960;;;14.7;62
68891;BME280;55932;48.702;8.884;2023-09-19T05:14:10;95960;;;14.8;62
68891;BME280;55932;48.702;8.884;2023-09-19T05:16:41;95960;;;14.8;62
68891;BME280;55932;48.702;8.884;2023-09-19T05:19:12;95960;;;14.8;62
68891;BME280;55932;48.702;8.884;2023-09-19T05:21:43;95960;;;14.7;62
68891;BME280;55932;48.702;8.884;2023-09-19T05:24:21;95970;;;14.7;62.5
68891;BME280;55932;48.702;8.884;2023-09-19T05:31:54;95960;;;14.9;62
68891;BME280;55932;48.702;8.884;2023-09-19T05:34:23;95970;;;15;62
68891;BME280;55932;48.702;8.884;2023-09-19T05:36:54;95970;;;15;62
68891;BME280;55932;48.702;8.884;2023-09-19T05:44:19;96000;;;15.2;62
68891;BME280;55932;48.702;8.884;2023-09-19T05:46:50;96010;;;15.1;62
68891;BME280;55932;48.702;8.884;2023-09-19T05:49:27;96020;;;14.9;62
68891;BME280;55932;48.702;8.884;2023-09-19T05:51:58;96020;;;14.7;62.5
68891;BME280;55932;48.702;8.884;2023-09-19T05:54:35;96020;;;14.5;62.5
68891;BME280;55932;48.702;8.884;2023-09-19T05:57:12;96030;;;14.4;62.5
68891;BME280;55932;48.702;8.884;2023-09-19T05:59:29;96030;;;14.3;62.5
68891;BME280;55932;48.702;8.884;2023-09-19T06:04:23;96030;;;14.3;62.5
68891;BME280;55932;48.702;8.884;2023-09-19T06:06:54;96030;;;14.3;62.5
68891;BME280;55932;48.702;8.884;2023-09-19T06:16:51;96040;;;14.6;62
68891;BME280;55932;48.702;8.884;2023-09-19T06:19:22;96040;;;14.6;62
68891;BME280;55932;48.702;8.884;2023-09-19T06:21:52;96040;;;14.7;62
68891;BME280;55932;48.702;8.884;2023-09-19T06:24:23;96040;;;14.8;62
68891;BME280;55932;48.702;8.884;2023-09-19T06:26:54;96050;;;14.7;62
68891;BME280;55932;48.702;8.884;2023-09-19T06:29:31;96050;;;14.8;62
68891;BME280;55932;48.702;8.884;2023-09-19T06:32:10;96060;;;14.7;62.5
68891;BME280;55932;48.702;8.884;2023-09-19T06:36:57;96050;;;15;62.5
68891;BME280;55932;48.702;8.884;2023-09-19T06:39:27;96050;;;15.2;63
68891;BME280;55932;48.702;8.884;2023-09-19T06:47:00;96060;;;16.1;63
68891;BME280;55932;48.702;8.884;2023-09-19T06:49:31;96050;;;16.3;63
68891;BME280;55932;48.702;8.884;2023-09-19T06:52:02;96060;;;16.4;62.5
68891;BME280;55932;48.702;8.884;2023-09-19T06:54:32;96070;;;16.2;62
68891;BME280;55932;48.702;8.884;2023-09-19T06:57:09;96080;;;16.2;62
68891;BME280;55932;48.702;8.884;2023-09-19T06:59:40;96080;;;16;62
68891;BME280;55932;48.702;8.884;2023-09-19T07:04:35;96080;;;15.8;62.5
68891;BME280;55932;48.702;8.884;2023-09-19T07:09:37;96080;;;15.7;62.5
68891;BME280;55932;48.702;8.884;2023-09-19T07:12:07;96090;;;15.7;62.5
68891;BME280;55932;48.702;8.884;2023-09-19T07:14:38;96080;;;15.9;62
68891;BME280;55932;48.702;8.884;2023-09-19T07:17:09;96090;;;16.1;62
68891;BME280;55932;48.702;8.884;2023-09-19T07:19:39;96090;;;16.2;61.5
68891;BME280;55932;48.702;8.884;2023-09-19T07:22:11;96090;;;16.2;61.5
68891;BME280;55932;48.702;8.884;2023-09-19T07:24:41;96100;;;16.2;61.5
68891;BME280;55932;48.702;8.884;2023-09-19T07:27:18;96100;;;16.2;62
68891;BME280;55932;48.702;8.884;2023-09-19T07:29:49;96100;;;16.2;61.5
68891;BME280;55932;48.702;8.884;2023-09-19T07:32:27;96100;;;16.1;62
68891;BME280;55932;48.702;8.884;2023-09-19T07:34:58;96100;;;16.1;62
68891;BME280;55932;48.702;8.884;2023-09-19T07:39:53;96110;;;16.1;61.5
68891;BME280;55932;48.702;8.884;2023-09-19T07:45:02;96110;;;16;62
68891;BME280;55932;48.702;8.884;2023-09-19T07:47:31;96110;;;16.2;61.5
68891;BME280;55932;48.702;8.884;2023-09-19T07:52:26;96110;;;16.7;61
68891;BME280;55932;48.702;8.884;2023-09-19T07:54:56;96110;;;16.9;61
68891;BME280;55932;48.702;8.884;2023-09-19T07:57:28;96110;;;17;61
68891;BME280;55932;48.702;8.884;2023-09-19T07:59:59;96110;;;17.1;61
68891;BME280;55932;48.702;8.884;2023-09-19T08:10:08;96120;;;17.1;61
68891;BME280;55932;48.702;8.884;2023-09-19T08:12:46;96130;;;17.2;60.5
68891;BME280;55932;48.702;8.884;2023-09-19T08:15:09;96130;;;17.4;60.5
68891;BME280;55932;48.702;8.884;2023-09-19T08:17:39;96130;;;17.4;60.5
68891;BME280;55932;48.702;8.884;2023-09-19T08:20:02;96140;;;17.5;60.5
68891;BME280;55932;48.702;8.884;2023-09-19T08:22:33;96140;;;17.5;60.5
68891;BME280;55932;48.702;8.884;2023-09-19T08:25:04;96140;;;17.5;60.5
68891;BME280;55932;48.702;8.884;2023-09-19T08:29:59;96150;;;17.2;61
68891;BME280;55932;48.702;8.884;2023-09-19T08:32:35;96150;;;17.1;61
68891;BME280;55932;48.702;8.884;2023-09-19T08:35:01;96140;;;17.1;61
68891;BME280;55932;48.702;8.884;2023-09-19T08:45:06;96150;;;20;60
68891;BME280;55932;48.702;8.884;2023-09-19T08:47:37;96160;;;20.8;59.5
68891;BME280;55932;48.702;8.884;2023-09-19T08:50:09;96160;;;20.9;58.5
68891;BME280;55932;48.702;8.884;2023-09-19T08:55:07;96160;;;21.4;58.5
68891;BME280;55932;48.702;8.884;2023-09-19T08:57:51;96160;;;21.6;59
68891;BME280;55932;48.702;8.884;2023-09-19T09:00:21;96170;;;20.8;58.5
68891;BME280;55932;48.702;8.884;2023-09-19T09:02:52;96170;;;21.2;59.5
68891;BME280;55932;48.702;8.884;2023-09-19T09:05:22;96170;;;21.4;59
68891;BME280;55932;48.702;8.884;2023-09-19T09:07:46;96170;;;21.1;59.5
68891;BME280;55932;48.702;8.884;2023-09-19T09:10:18;96170;;;21.8;59.5
68891;BME280;55932;48.702;8.884;2023-09-19T09:12:54;96180;;;20.6;60
68891;BME280;55932;48.702;8.884;2023-09-19T09:15:26;96170;;;19.9;60.5
68891;BME280;55932;48.702;8.884;2023-09-19T09:20:14;96180;;;20.2;61.5
68891;BME280;55932;48.702;8.884;2023-09-19T09:22:52;96180;;;20.5;61
68891;BME280;55932;48.702;8.884;2023-09-19T09:27:48;96170;;;20.1;61
68891;BME280;55932;48.702;8.884;2023-09-19T09:30:32;96170;;;19.8;61
68891;BME280;55932;48.702;8.884;2023-09-19T09:32:48;96170;;;20.9;62.5
68891;BME280;55932;48.702;8.884;2023-09-19T09:35:18;96160;;;21.9;61
68891;BME280;55932;48.702;8.884;2023-09-19T09:37:58;96160;;;23;60.5
68891;BME280;55932;48.702;8.884;2023-09-19T09:48:12;96160;;;22.6;60
68891;BME280;55932;48.702;8.884;2023-09-19T09:50:35;96170;;;22;60.5
68891;BME280;55932;48.702;8.884;2023-09-19T09:53:19;96170;;;22.2;61
68891;BME280;55932;48.702;8.884;2023-09-19T09:55:56;96170;;;23.4;60.5
68891;BME280;55932;48.702;8.884;2023-09-19T09:58:21;96170;;;25.2;59
68891;BME280;55932;48.702;8.884;2023-09-19T10:03:00;96170;;;23.9;59
68891;BME280;55932;48.702;8.884;2023-09-19T10:05:32;96170;;;22.5;60
68891;BME280;55932;48.702;8.884;2023-09-19T10:08:10;96170;;;22.3;61.5
68891;BME280;55932;48.702;8.884;2023-09-19T10:10:40;96170;;;22.9;61
68891;BME280;55932;48.702;8.884;2023-09-19T10:15:29;96160;;;22.5;60.5
68891;BME280;55932;48.702;8.884;2023-09-19T10:18:00;96160;;;22.6;60
68891;BME280;55932;48.702;8.884;2023-09-19T10:20:29;96160;;;24.2;60
68891;BME280;55932;48.702;8.884;2023-09-19T10:28:01;96150;;;23.9;60.5
68891;BME280;55932;48.702;8.884;2023-09-19T10:33:28;96150;;;25.1;59
68891;BME280;55932;48.702;8.884;2023-09-19T10:38:17;96150;;;23.8;60.5
68891;BME280;55932;48.702;8.884;2023-09-19T10:40:48;96160;;;25;59.5
68891;BME280;55932;48.702;8.884;2023-09-19T10:43:16;96160;;;24.9;59.5
68891;BME280;55932;48.702;8.884;2023-09-19T10:46:02;96170;;;24.3;59.5
68891;BME280;55932;48.702;8.884;2023-09-19T10:51:09;96160;;;25.5;59
68891;BME280;55932;48.702;8.884;2023-09-19T10:53:31;96170;;;26.2;58.5
68891;BME280;55932;48.702;8.884;2023-09-19T10:55:49;96170;;;24.9;59
68891;BME280;55932;48.702;8.884;2023-09-19T10:58:32;96160;;;24;60.5
68891;BME280;55932;48.702;8.884;2023-09-19T11:05:42;96170;;;23.8;60.5
68891;BME280;55932;48.702;8.884;2023-09-19T11:08:12;96160;;;22.7;61.5
68891;BME280;55932;48.702;8.884;2023-09-19T11:13:36;96160;;;23.3;61.5
68891;BME280;55932;48.702;8.884;2023-09-19T11:16:05;96160;;;24.3;60
68891;BME280;55932;48.702;8.884;2023-09-19T11:23:35;96160;;;22.8;61
68891;BME280;55932;48.702;8.884;2023-09-19T11:28:28;96160;;;21.2;62.5
68891;BME280;55932;48.702;8.884;2023-09-19T11:30:47;96160;;;20.8;62.5
68891;BME280;55932;48.702;8.884;2023-09-19T11:33:18;96150;;;21.2;62
68891;BME280;55932;48.702;8.884;2023-09-19T11:35:58;96150;;;22.4;61.5
68891;BME280;55932;48.702;8.884;2023-09-19T11:53:17;96140;;;26.2;57.5
68891;BME280;55932;48.702;8.884;2023-09-19T11:55:48;96130;;;27.5;56
68891;BME280;55932;48.702;8.884;2023-09-19T11:58:19;96140;;;28.3;55.5
68891;BME280;55932;48.702;8.884;2023-09-19T12:03:33;96130;;;28.2;55.5
68891;BME280;55932;48.702;8.884;2023-09-19T12:06:10;96120;;;27.7;56
68891;BME280;55932;48.702;8.884;2023-09-19T12:08:27;96110;;;27.7;56.5
68891;BME280;55932;48.702;8.884;2023-09-19T12:10:58;96110;;;27.6;56.5
68891;BME280;55932;48.702;8.884;2023-09-19T12:13:35;96120;;;27.8;56.5
68891;BME280;55932;48.702;8.884;2023-09-19T12:16:11;96110;;;27.7;56.5
68891;BME280;55932;48.702;8.884;2023-09-19T12:23:39;96110;;;27.1;57
68891;BME280;55932;48.702;8.884;2023-09-19T12:26:09;96100;;;26.9;57.5
68891;BME280;55932;48.702;8.884;2023-09-19T12:31:06;96090;;;27.5;56
68891;BME280;55932;48.702;8.884;2023-09-19T12:33:34;96090;;;28.2;55
68891;BME280;55932;48.702;8.884;2023-09-19T12:36:19;96090;;;28.9;54
68891;BME280;55932;48.702;8.884;2023-09-19T12:41:07;96080;;;28.2;55
68891;BME280;55932;48.702;8.884;2023-09-19T12:46:14;96090;;;28.7;54.5
68891;BME280;55932;48.702;8.884;2023-09-19T12:48:44;96090;;;28.8;54.5
68891;BME280;55932;48.702;8.884;2023-09-19T12:51:08;96080;;;29;54.5
68891;BME280;55932;48.702;8.884;2023-09-19T12:53:39;96080;;;28.9;54
68891;BME280;55932;48.702;8.884;2023-09-19T13:01:15;96070;;;28.8;54.5
68891;BME280;55932;48.702;8.884;2023-09-19T13:06:35;96070;;;28.8;54
68891;BME280;55932;48.702;8.884;2023-09-19T13:09:13;96070;;;29.3;53
68891;BME280;55932;48.702;8.884;2023-09-19T13:11:20;96070;;;28.6;54
68891;BME280;55932;48.702;8.884;2023-09-19T13:16:15;96070;;;29.1;53.5
68891;BME280;55932;48.702;8.884;2023-09-19T13:18:48;96070;;;29.1;53.5
68891;BME280;55932;48.702;8.884;2023-09-19T13:26:19;96070;;;29.5;52.5
68891;BME280;55932;48.702;8.884;2023-09-19T13:28:50;96060;;;29.4;52.5
68891;BME280;55932;48.702;8.884;2023-09-19T13:31:21;96070;;;29.6;52.5
68891;BME280;55932;48.702;8.884;2023-09-19T13:33:52;96060;;;29.6;51.5
68891;BME280;55932;48.702;8.884;2023-09-19T13:39:01;96060;;;28.8;53
68891;BME280;55932;48.702;8.884;2023-09-19T13:41:31;96050;;;29.1;52.5
68891;BME280;55932;48.702;8.884;2023-09-19T13:44:00;96050;;;26.8;55.5
68891;BME280;55932;48.702;8.884;2023-09-19T13:46:25;96050;;;24.9;58
68891;BME280;55932;48.702;8.884;2023-09-19T13:49:04;96050;;;26.9;55
68891;BME280;55932;48.702;8.884;2023-09-19T13:51:34;96040;;;27.5;54
68891;BME280;55932;48.702;8.884;2023-09-19T13:56:30;96060;;;24.5;58
68891;BME280;55932;48.702;8.884;2023-09-19T13:59:07;96060;;;23.2;60
68891;BME280;55932;48.702;8.884;2023-09-19T14:01:31;96050;;;22.5;60.5
68891;BME280;55932;48.702;8.884;2023-09-19T14:04:09;96050;;;22.3;60.5
68891;BME280;55932;48.702;8.884;2023-09-19T14:06:41;96050;;;22.2;60.5
68891;BME280;55932;48.702;8.884;2023-09-19T14:09:14;96050;;;23.7;58.5
68891;BME280;55932;48.702;8.884;2023-09-19T14:11:38;96050;;;24.9;57
68891;BME280;55932;48.702;8.884;2023-09-19T14:19:06;96050;;;27.9;52
68891;BME280;55932;48.702;8.884;2023-09-19T14:21:34;96050;;;28.5;51
68891;BME280;55932;48.702;8.884;2023-09-19T14:26:36;96040;;;27.3;53
68891;BME280;55932;48.702;8.884;2023-09-19T14:29:07;96040;;;25.9;55
68891;BME280;55932;48.702;8.884;2023-09-19T14:31:38;96040;;;26.1;54
68891;BME280;55932;48.702;8.884;2023-09-19T14:34:09;96040;;;25.6;55
68891;BME280;55932;48.702;8.884;2023-09-19T14:36:40;96030;;;25.2;55.5
68891;BME280;55932;48.702;8.884;2023-09-19T14:39:10;96030;;;25.3;55.5
68891;BME280;55932;48.702;8.884;2023-09-19T14:46:50;96020;;;24.2;57
68891;BME280;55932;48.702;8.884;2023-09-19T14:51:45;96020;;;23.9;57
68891;BME280;55932;48.702;8.884;2023-09-19T14:54:17;96020;;;23.9;57
68891;BME280;55932;48.702;8.884;2023-09-19T14:56:47;96020;;;23.9;57
68891;BME280;55932;48.702;8.884;2023-09-19T14:59:18;96030;;;23.5;57.5
68891;BME280;55932;48.702;8.884;2023-09-19T15:01:49;96030;;;23.4;57.5
68891;BME280;55932;48.702;8.884;2023-09-19T15:04:21;96030;;;23.7;57
68891;BME280;55932;48.702;8.884;2023-09-19T15:06:51;96030;;;23.7;57
68891;BME280;55932;48.702;8.884;2023-09-19T15:09:29;96030;;;23.6;57
68891;BME280;55932;48.702;8.884;2023-09-19T15:12:00;96030;;;23.3;57.5
68891;BME280;55932;48.702;8.884;2023-09-19T15:16:55;96030;;;22.9;58
68891;BME280;55932;48.702;8.884;2023-09-19T15:19:26;96030;;;22.7;58.5
68891;BME280;55932;48.702;8.884;2023-09-19T15:21:57;96020;;;22.5;58.5
68891;BME280;55932;48.702;8.884;2023-09-19T15:24:28;96030;;;22.5;58.5
68891;BME280;55932;48.702;8.884;2023-09-19T15:26:59;96020;;;22.6;58.5
68891;BME280;55932;48.702;8.884;2023-09-19T15:29:30;96020;;;22.7;58
68891;BME280;55932;48.702;8.884;2023-09-19T15:32:01;96020;;;22.7;58
68891;BME280;55932;48.702;8.884;2023-09-19T15:34:32;96010;;;22.6;58
68891;BME280;55932;48.702;8.884;2023-09-19T15:37:09;96020;;;22.4;58.5
68891;BME280;55932;48.702;8.884;2023-09-19T15:42:05;96010;;;22;59
68891;BME280;55932;48.702;8.884;2023-09-19T15:44:36;96020;;;21.9;59
68891;BME280;55932;48.702;8.884;2023-09-19T15:49:37;96010;;;22;59
68891;BME280;55932;48.702;8.884;2023-09-19T15:54:39;96000;;;23;57
68891;BME280;55932;48.702;8.884;2023-09-19T15:57:10;95990;;;23.1;57
68891;BME280;55932;48.702;8.884;2023-09-19T15:59:41;96000;;;23.2;57
68891;BME280;55932;48.702;8.884;2023-09-19T16:02:12;96000;;;22.9;57
68891;BME280;55932;48.702;8.884;2023-09-19T16:04:43;96000;;;22.4;58
68891;BME280;55932;48.702;8.884;2023-09-19T16:12:17;96010;;;21.6;59
68891;BME280;55932;48.702;8.884;2023-09-19T16:14:47;96000;;;21.2;59.5
68891;BME280;55932;48.702;8.884;2023-09-19T16:17:18;95990;;;20.9;60
68891;BME280;55932;48.702;8.884;2023-09-19T16:19:49;96000;;;20.8;60
68891;BME280;55932;48.702;8.884;2023-09-19T16:22:20;96000;;;20.8;60
68891;BME280;55932;48.702;8.884;2023-09-19T16:24:54;96000;;;20.9;59.5
68891;BME280;55932;48.702;8.884;2023-09-19T16:29:52;96000;;;20.7;60
68891;BME280;55932;48.702;8.884;2023-09-19T16:32:23;96000;;;20.4;60.5
68891;BME280;55932;48.702;8.884;2023-09-19T16:34:54;96010;;;20.1;60.5
68891;BME280;55932;48.702;8.884;2023-09-19T16:37:33;96010;;;19.8;61
68891;BME280;55932;48.702;8.884;2023-09-19T16:45:04;96000;;;19.3;61.5
68891;BME280;55932;48.702;8.884;2023-09-19T16:47:34;96000;;;19.2;61.5
68891;BME280;55932;48.702;8.884;2023-09-19T16:52:28;96000;;;19;62
68891;BME280;55932;48.702;8.884;2023-09-19T16:54:59;96000;;;19;61.5
68891;BME280;55932;48.702;8.884;2023-09-19T16:57:31;96000;;;19.1;61.5
68891;BME280;55932;48.702;8.884;2023-09-19T17:00:01;95990;;;19.1;61.5
68891;BME280;55932;48.702;8.884;2023-09-19T17:02:45;95990;;;19;61.5
68891;BME280;55932;48.702;8.884;2023-09-19T17:05:15;95990;;;18.8;61.5
68891;BME280;55932;48.702;8.884;2023-09-19T17:07:45;95990;;;18.6;62
68891;BME280;55932;48.702;8.884;2023-09-19T17:12:33;96000;;;18.2;62.5
68891;BME280;55932;48.702;8.884;2023-09-19T17:15:04;96000;;;18;62.5
68891;BME280;55932;48.702;8.884;2023-09-19T17:19:59;96000;;;17.5;63
68891;BME280;55932;48.702;8.884;2023-09-19T17:22:30;96000;;;17.3;63
68891;BME280;55932;48.702;8.884;2023-09-19T17:25:01;96000;;;17.1;63.5
68891;BME280;55932;48.702;8.884;2023-09-19T17:32:34;96000;;;16.7;63.5
68891;BME280;55932;48.702;8.884;2023-09-19T17:35:04;96010;;;16.7;63.5
68891;BME280;55932;48.702;8.884;2023-09-19T17:37:35;96010;;;16.7;63.5
68891;BME280;55932;48.702;8.884;2023-09-19T17:40:08;96010;;;16.6;63.5
68891;BME280;55932;48.702;8.884;2023-09-19T17:42:37;96010;;;16.5;63.5
68891;BME280;55932;48.702;8.884;2023-09-19T17:50:21;96020;;;16.2;63.5
68891;BME280;55932;48.702;8.884;2023-09-19T17:52:51;96020;;;16.1;63.5
68891;BME280;55932;48.702;8.884;2023-09-19T17:55:21;96030;;;15.9;63.5
68891;BME280;55932;48.702;8.884;2023-09-19T17:57:51;96030;;;15.8;64
68891;BME280;55932;48.702;8.884;2023-09-19T18:00:28;96030;;;15.7;64
68891;BME280;55932;48.702;8.884;2023-09-19T18:05:16;96040;;;15.7;63.5
68891;BME280;55932;48.702;8.884;2023-09-19T18:07:47;96040;;;15.7;63.5
68891;BME280;55932;48.702;8.884;2023-09-19T18:12:55;96050;;;15.6;63.5
68891;BME280;55932;48.702;8.884;2023-09-19T18:15:25;96050;;;15.5;63.5
68891;BME280;55932;48.702;8.884;2023-09-19T18:17:49;96050;;;15.4;63.5
68891;BME280;55932;48.702;8.884;2023-09-19T18:20:20;96050;;;15.4;63.5
68891;BME280;55932;48.702;8.884;2023-09-19T18:22:51;96050;;;15.4;63.5
68891;BME280;55932;48.702;8.884;2023-09-19T18:25:28;96050;;;15.3;63.5
68891;BME280;55932;48.702;8.884;2023-09-19T18:27:59;96060;;;15.3;63.5
68891;BME280;55932;48.702;8.884;2023-09-19T18:35:26;96050;;;15;64
68891;BME280;55932;48.702;8.884;2023-09-19T18:37:57;96050;;;14.9;64
68891;BME280;55932;48.702;8.884;2023-09-19T18:40:43;96050;;;14.9;63.5
68891;BME280;55932;48.702;8.884;2023-09-19T18:43:05;96060;;;14.8;64
68891;BME280;55932;48.702;8.884;2023-09-19T18:45:56;96060;;;14.7;64
68891;BME280;55932;48.702;8.884;2023-09-19T18:48:05;96060;;;14.7;64
68891;BME280;55932;48.702;8.884;2023-09-19T18:50:34;96050;;;14.5;64
68891;BME280;55932;48.702;8.884;2023-09-19T18:53:04;96060;;;14.4;64
68891;BME280;55932;48.702;8.884;2023-09-19T18:55:41;96060;;;14.4;64
68891;BME280;55932;48.702;8.884;2023-09-19T18:58:16;96060;;;14.4;64
68891;BME280;55932;48.702;8.884;2023-09-19T19:03:05;96080;;;14.2;64
68891;BME280;55932;48.702;8.884;2023-09-19T19:05:31;96080;;;14.2;64
68891;BME280;55932;48.702;8.884;2023-09-19T19:08:01;96080;;;14.2;64
68891;BME280;55932;48.702;8.884;2023-09-19T19:10:31;96080;;;14.2;64
68891;BME280;55932;48.702;8.884;2023-09-19T19:25:29;96090;;;13.9;64
68891;BME280;55932;48.702;8.884;2023-09-19T19:28:01;96090;;;13.8;64
68891;BME280;55932;48.702;8.884;2023-09-19T19:30:42;96100;;;13.8;64
68891;BME280;55932;48.702;8.884;2023-09-19T19:33:01;96100;;;13.7;64